Decoded Metar for DABT (BATNA in ALGERIA) (IATA:N/A) | Meteo·Mobile Aviation Weather
aviador You're here:

DABT Decoded Metar

BATNA in ALGERIA
Report Time2019-02-17 19:00:00
UTC Time2019-02-17 19:37:57
Flight Rules vfr VFR
Wind300° at 02 kt
W.Decomp.*RWY 23: 0.7 kt HW 1.9 kt RCW
W.Rank300° ranks 1
Current wind is below 300° avg. (9.4)
Visibility9999 m
Phenomena:N/A
Clouds:N/A
Expected CloudBase > 2,800 ft AGL from Temp-Dew spread
CeilingNone
Temp06°C (ISA -2)
Dew Point-1°C (61% RH)
AAT3.2°C
QNH1025 hPa
Density Alt2,877 ft
Elevation3,451 ft
Report Wrong Elevation
Raw Report
DABT 171900Z 30002KT CAVOK 06/M01 Q1025=

Extra information for DABT:More info

Metar Taf Metar & Taf Last 4 Metars F.Rules Stats Wind Profile Meteogram Temp Stats Airport Information Weather charts Add Link Nearby VenuesMetar ALERT Operation Metar Decoded Social comments